Time;durP1;ratioP1;P1;durP2;ratioP2;P2;SDS_P1;SDS_P2;PMS_P1;PMS_P2;Temp;Humidity;BMP_temperature;BMP_pressure;BME280_temperature;BME280_humidity;BME280_pressure;Samples;Min_cycle;Max_cycle;Signal;HPM_P1;HPM_P2
2021/01/15 00:10:01;;;;;;;8.60;6.37;;;;;;;;;;6277834;22;20245;-76
2021/01/15 00:31:32;;;;;;;7.57;6.00;;;;;;;;;;6278211;22;20205;-76
2021/01/15 00:44:25;;;;;;;8.27;6.30;;;;;;;;;;6276942;22;20177;-76
2021/01/15 00:46:55;;;;;;;8.57;6.20;;;;;;;;;;6268502;23;20155;-77
2021/01/15 00:49:24;;;;;;;7.93;5.47;;;;;;;;;;6222119;23;20235;-76
2021/01/15 00:51:56;;;;;;;7.87;5.40;;;;;;;;;;6222536;23;20222;-76
2021/01/15 01:10:21;;;;;;;7.73;5.30;;;;;;;;;;6299835;22;20205;-76
2021/01/15 01:44:33;;;;;;;10.00;6.77;;;;;;;;;;6277751;22;20206;-75
2021/01/15 01:47:03;;;;;;;10.53;6.60;;;;;;;;;;6277614;22;20174;-78
2021/01/15 01:49:33;;;;;;;8.67;6.67;;;;;;;;;;6250657;22;20174;-75
2021/01/15 01:52:03;;;;;;;10.13;6.53;;;;;;;;;;6259417;22;20170;-76
2021/01/15 01:57:24;;;;;;;11.07;7.10;;;;;;;;;;6267082;22;20170;-77
2021/01/15 01:59:54;;;;;;;8.60;6.57;;;;;;;;;;6268333;22;20614;-77
2021/01/15 02:02:22;;;;;;;9.73;6.97;;;;;;;;;;6277024;22;20173;-77
2021/01/15 02:04:51;;;;;;;10.67;7.10;;;;;;;;;;6277388;22;20191;-77
2021/01/15 02:07:21;;;;;;;10.83;6.93;;;;;;;;;;6250773;22;20163;-78
2021/01/15 02:09:55;;;;;;;8.13;6.30;;;;;;;;;;6250557;22;20506;-77
2021/01/15 02:18:47;;;;;;;10.87;7.07;;;;;;;;;;6277267;22;20206;-77
2021/01/15 02:21:41;;;;;;;9.57;6.93;;;;;;;;;;6225092;22;20170;-76
2021/01/15 02:27:43;;;;;;;9.57;6.63;;;;;;;;;;6220113;23;20155;-76
2021/01/15 02:30:21;;;;;;;9.77;7.07;;;;;;;;;;6220681;23;20500;-75
2021/01/15 02:33:04;;;;;;;9.73;7.00;;;;;;;;;;6197512;22;20163;-74
2021/01/15 02:35:47;;;;;;;10.17;6.93;;;;;;;;;;6245264;23;20173;-77
2021/01/15 02:38:39;;;;;;;8.87;6.30;;;;;;;;;;6195177;23;20169;-77
2021/01/15 02:41:18;;;;;;;9.77;7.20;;;;;;;;;;6262830;23;20155;-77
2021/01/15 02:43:50;;;;;;;10.63;7.07;;;;;;;;;;6251942;23;20199;-77
2021/01/15 02:46:25;;;;;;;11.20;8.13;;;;;;;;;;6168217;23;20481;-77
2021/01/15 02:48:54;;;;;;;10.13;7.10;;;;;;;;;;6189501;23;20482;-77
2021/01/15 02:51:24;;;;;;;9.67;6.87;;;;;;;;;;6229866;23;20172;-78
2021/01/15 02:53:53;;;;;;;11.23;7.33;;;;;;;;;;6216300;23;20201;-77
2021/01/15 02:56:22;;;;;;;11.17;7.17;;;;;;;;;;6213871;23;20229;-77
2021/01/15 02:58:50;;;;;;;9.43;6.93;;;;;;;;;;6199794;23;20178;-78
2021/01/15 03:01:20;;;;;;;9.63;7.03;;;;;;;;;;6205755;23;20175;-77
2021/01/15 03:03:50;;;;;;;11.10;7.83;;;;;;;;;;6234596;23;20202;-77
2021/01/15 03:06:33;;;;;;;10.53;7.43;;;;;;;;;;6207654;23;20182;-77
2021/01/15 03:09:01;;;;;;;11.50;7.97;;;;;;;;;;6235184;23;20171;-77
2021/01/15 03:11:32;;;;;;;12.07;7.93;;;;;;;;;;6210302;23;20172;-77
2021/01/15 03:14:02;;;;;;;10.80;8.07;;;;;;;;;;6200508;23;20512;-77
2021/01/15 03:16:31;;;;;;;10.20;7.90;;;;;;;;;;6191627;23;20175;-77
2021/01/15 03:19:00;;;;;;;10.87;7.60;;;;;;;;;;6216915;23;20670;-77
2021/01/15 03:21:38;;;;;;;12.17;8.37;;;;;;;;;;6193017;23;20163;-76
2021/01/15 03:24:07;;;;;;;10.43;7.40;;;;;;;;;;6193224;23;20213;-77
2021/01/15 03:26:36;;;;;;;10.93;7.67;;;;;;;;;;6168259;23;20160;-77
2021/01/15 03:29:05;;;;;;;11.93;8.17;;;;;;;;;;6191681;23;20505;-77
2021/01/15 03:31:33;;;;;;;11.80;8.30;;;;;;;;;;6167356;23;20178;-77
2021/01/15 03:37:22;;;;;;;11.07;8.33;;;;;;;;;;6279421;22;20206;-75
2021/01/15 03:39:51;;;;;;;11.77;8.27;;;;;;;;;;6251224;22;20181;-76
2021/01/15 03:42:19;;;;;;;12.77;9.27;;;;;;;;;;6226266;22;20511;-75
2021/01/15 03:44:47;;;;;;;11.57;8.50;;;;;;;;;;6225825;22;20193;-76
2021/01/15 03:47:19;;;;;;;11.17;8.77;;;;;;;;;;6225924;22;20182;-76
2021/01/15 03:49:49;;;;;;;12.23;8.37;;;;;;;;;;6251222;22;20170;-76
2021/01/15 03:58:12;;;;;;;12.67;8.70;;;;;;;;;;6276430;22;20181;-75
2021/01/15 04:00:40;;;;;;;11.60;8.70;;;;;;;;;;6230906;22;20180;-77
2021/01/15 04:03:35;;;;;;;12.17;8.90;;;;;;;;;;6226676;22;20196;-77
2021/01/15 04:06:03;;;;;;;11.57;8.37;;;;;;;;;;6279488;22;20197;-77
2021/01/15 04:08:32;;;;;;;13.10;9.23;;;;;;;;;;6234263;22;20175;-77
2021/01/15 04:11:01;;;;;;;13.27;9.30;;;;;;;;;;6283457;22;20177;-77
2021/01/15 04:13:30;;;;;;;12.33;8.93;;;;;;;;;;6230941;22;20182;-77
2021/01/15 04:15:59;;;;;;;13.97;9.67;;;;;;;;;;6251183;22;20167;-77
2021/01/15 04:18:31;;;;;;;13.77;9.37;;;;;;;;;;6225738;22;20177;-77
2021/01/15 04:21:05;;;;;;;13.53;9.43;;;;;;;;;;6250991;22;20174;-77
2021/01/15 04:23:34;;;;;;;14.67;9.30;;;;;;;;;;6251664;22;20197;-77
2021/01/15 04:26:03;;;;;;;15.73;9.83;;;;;;;;;;6250846;22;20190;-77
2021/01/15 04:28:32;;;;;;;13.23;8.90;;;;;;;;;;6250976;22;20177;-77
2021/01/15 04:31:01;;;;;;;11.53;8.63;;;;;;;;;;6277875;22;20181;-77
2021/01/15 04:33:34;;;;;;;13.50;8.77;;;;;;;;;;6250153;22;20194;-77
2021/01/15 04:36:03;;;;;;;12.77;8.87;;;;;;;;;;6226374;22;20167;-77
2021/01/15 04:38:31;;;;;;;12.83;9.37;;;;;;;;;;6277399;22;20177;-77
2021/01/15 04:41:00;;;;;;;12.97;9.10;;;;;;;;;;6225875;22;20649;-77
2021/01/15 04:43:29;;;;;;;13.73;9.43;;;;;;;;;;6225747;22;20250;-77
2021/01/15 04:45:59;;;;;;;12.10;8.87;;;;;;;;;;6225676;22;20198;-76
2021/01/15 04:48:29;;;;;;;14.13;9.47;;;;;;;;;;6226063;22;20173;-75
2021/01/15 04:50:59;;;;;;;13.77;8.90;;;;;;;;;;6225596;22;20174;-76
2021/01/15 04:53:30;;;;;;;11.47;7.90;;;;;;;;;;6250289;22;20190;-75
2021/01/15 04:55:59;;;;;;;12.33;8.43;;;;;;;;;;6226238;22;20177;-75
2021/01/15 04:58:34;;;;;;;11.63;8.53;;;;;;;;;;6225087;22;20178;-75
2021/01/15 05:01:04;;;;;;;13.87;9.27;;;;;;;;;;6225844;22;20189;-75
2021/01/15 05:03:32;;;;;;;13.77;9.80;;;;;;;;;;6225914;22;20198;-75
2021/01/15 05:06:01;;;;;;;12.60;8.97;;;;;;;;;;6225648;22;20198;-75
2021/01/15 05:08:35;;;;;;;13.40;9.37;;;;;;;;;;6224139;22;20174;-76
2021/01/15 05:11:04;;;;;;;12.90;8.40;;;;;;;;;;6226056;22;20171;-75
2021/01/15 05:13:36;;;;;;;14.50;9.50;;;;;;;;;;6251011;22;20195;-75
2021/01/15 05:16:08;;;;;;;14.13;9.47;;;;;;;;;;6250940;22;20162;-76
2021/01/15 05:18:39;;;;;;;14.33;9.57;;;;;;;;;;6249532;22;20170;-75
2021/01/15 05:21:08;;;;;;;12.63;8.67;;;;;;;;;;6250404;22;20170;-75
2021/01/15 05:23:36;;;;;;;12.60;8.80;;;;;;;;;;6249956;22;20194;-75
2021/01/15 05:26:05;;;;;;;13.63;9.63;;;;;;;;;;6225293;22;20186;-75
2021/01/15 05:28:34;;;;;;;13.00;9.30;;;;;;;;;;6224742;22;20174;-77
2021/01/15 05:31:03;;;;;;;13.87;9.13;;;;;;;;;;6250532;22;20166;-75
2021/01/15 05:33:33;;;;;;;13.63;9.10;;;;;;;;;;6225637;22;20190;-75
2021/01/15 05:36:02;;;;;;;12.50;8.70;;;;;;;;;;6242143;22;20159;-76
2021/01/15 05:38:30;;;;;;;13.23;8.40;;;;;;;;;;6302885;22;20197;-76
2021/01/15 05:40:59;;;;;;;11.33;8.63;;;;;;;;;;6257911;22;20621;-75
2021/01/15 05:43:30;;;;;;;12.00;9.30;;;;;;;;;;6225187;22;20190;-76
2021/01/15 05:46:06;;;;;;;13.17;8.47;;;;;;;;;;6225288;22;20533;-76
2021/01/15 05:48:38;;;;;;;13.70;9.33;;;;;;;;;;6225624;22;20166;-76
2021/01/15 05:51:22;;;;;;;14.47;8.87;;;;;;;;;;6225435;22;20177;-76
2021/01/15 05:53:51;;;;;;;13.00;9.13;;;;;;;;;;6249736;22;20676;-76
2021/01/15 05:56:20;;;;;;;13.90;9.60;;;;;;;;;;6225142;22;20171;-76
2021/01/15 05:59:06;;;;;;;11.90;8.53;;;;;;;;;;6276399;22;20177;-76
2021/01/15 06:01:45;;;;;;;15.43;9.07;;;;;;;;;;6225712;22;20163;-77
2021/01/15 06:04:16;;;;;;;12.37;8.47;;;;;;;;;;6224660;22;20182;-76
2021/01/15 06:06:45;;;;;;;13.80;9.03;;;;;;;;;;6250000;22;20661;-76
2021/01/15 06:09:20;;;;;;;13.63;9.17;;;;;;;;;;6249343;22;20174;-76
2021/01/15 06:11:49;;;;;;;13.23;9.03;;;;;;;;;;6224912;22;20166;-76
2021/01/15 06:14:23;;;;;;;13.73;8.60;;;;;;;;;;6248827;22;20539;-75
2021/01/15 06:17:02;;;;;;;14.07;9.23;;;;;;;;;;6250241;22;20163;-76
2021/01/15 06:19:46;;;;;;;12.33;8.47;;;;;;;;;;6257027;22;20174;-76
2021/01/15 06:22:30;;;;;;;12.23;8.60;;;;;;;;;;6274815;22;20229;-77
2021/01/15 06:25:05;;;;;;;12.40;8.50;;;;;;;;;;6298999;22;20237;-76
2021/01/15 06:27:35;;;;;;;14.77;9.27;;;;;;;;;;6285103;22;20177;-77
2021/01/15 06:30:06;;;;;;;14.03;9.07;;;;;;;;;;6224288;22;20170;-77
2021/01/15 06:32:35;;;;;;;16.03;9.93;;;;;;;;;;6249931;22;20170;-76
2021/01/15 06:35:06;;;;;;;13.30;9.10;;;;;;;;;;6224719;22;20507;-77
2021/01/15 06:38:05;;;;;;;13.50;8.77;;;;;;;;;;6226213;22;20501;-78
2021/01/15 06:40:35;;;;;;;14.07;9.07;;;;;;;;;;6225745;22;20167;-77
2021/01/15 06:46:22;;;;;;;16.17;9.40;;;;;;;;;;6275872;22;20194;-77
2021/01/15 06:49:01;;;;;;;13.27;8.43;;;;;;;;;;6249834;22;20166;-75
2021/01/15 06:51:36;;;;;;;13.20;8.97;;;;;;;;;;6277147;22;20178;-76
2021/01/15 06:54:06;;;;;;;11.33;7.70;;;;;;;;;;6249850;22;20193;-76
2021/01/15 06:56:38;;;;;;;13.23;8.67;;;;;;;;;;6249417;22;20173;-76
2021/01/15 06:59:15;;;;;;;13.93;9.07;;;;;;;;;;6249422;22;20177;-76
2021/01/15 07:02:12;;;;;;;14.90;10.03;;;;;;;;;;6275481;22;20193;-78
2021/01/15 07:05:05;;;;;;;14.13;9.10;;;;;;;;;;6250345;22;20177;-77
2021/01/15 07:07:34;;;;;;;12.13;8.37;;;;;;;;;;6222932;22;20177;-77
2021/01/15 07:10:05;;;;;;;14.67;9.77;;;;;;;;;;6250252;22;20171;-76
2021/01/15 07:16:54;;;;;;;14.20;9.30;;;;;;;;;;6287828;22;20147;-76
2021/01/15 07:19:33;;;;;;;16.53;10.30;;;;;;;;;;6277753;22;20174;-76
2021/01/15 07:25:33;;;;;;;15.10;9.87;;;;;;;;;;6250462;22;20182;-76
2021/01/15 07:28:02;;;;;;;14.83;9.80;;;;;;;;;;6249670;22;20177;-78
2021/01/15 07:30:31;;;;;;;14.43;9.77;;;;;;;;;;6250016;22;20170;-75
2021/01/15 07:36:36;;;;;;;15.93;10.30;;;;;;;;;;6276319;22;20202;-75
2021/01/15 07:39:10;;;;;;;15.27;9.90;;;;;;;;;;6224187;22;20159;-77
2021/01/15 07:41:44;;;;;;;14.40;10.07;;;;;;;;;;6250144;22;20166;-75
2021/01/15 07:44:37;;;;;;;14.43;9.43;;;;;;;;;;6277667;22;20197;-75
2021/01/15 07:47:12;;;;;;;18.07;9.77;;;;;;;;;;6251080;22;20190;-75
2021/01/15 07:49:49;;;;;;;15.40;9.77;;;;;;;;;;6251011;22;20170;-78
2021/01/15 07:52:18;;;;;;;14.57;8.77;;;;;;;;;;6252477;22;20566;-76
2021/01/15 07:55:01;;;;;;;14.40;9.17;;;;;;;;;;6250865;22;20174;-76
2021/01/15 07:57:32;;;;;;;14.97;10.27;;;;;;;;;;6226568;22;20161;-76
2021/01/15 08:03:40;;;;;;;15.97;9.73;;;;;;;;;;6251669;22;20190;-76
2021/01/15 08:06:09;;;;;;;13.77;9.33;;;;;;;;;;6227260;22;20190;-76
2021/01/15 08:08:56;;;;;;;14.97;9.40;;;;;;;;;;6226445;22;20169;-76
2021/01/15 08:11:25;;;;;;;14.90;10.30;;;;;;;;;;6227688;22;20176;-76
2021/01/15 08:48:37;;;;;;;13.90;9.67;;;;;;;;;;6282218;22;20658;-76
2021/01/15 08:51:09;;;;;;;16.23;10.60;;;;;;;;;;6251294;22;20178;-76
2021/01/15 08:53:43;;;;;;;15.73;10.00;;;;;;;;;;6226468;22;20197;-77
2021/01/15 08:56:14;;;;;;;15.63;10.37;;;;;;;;;;6251710;22;20163;-77
2021/01/15 08:58:55;;;;;;;14.97;9.90;;;;;;;;;;6251116;22;20700;-77
2021/01/15 09:01:28;;;;;;;14.43;9.53;;;;;;;;;;6225365;22;20633;-78
2021/01/15 09:04:05;;;;;;;14.27;9.67;;;;;;;;;;6250693;22;20193;-77
2021/01/15 09:06:38;;;;;;;13.90;9.70;;;;;;;;;;6225740;22;20205;-77
2021/01/15 09:09:08;;;;;;;15.03;9.63;;;;;;;;;;6225461;22;20189;-77
2021/01/15 09:11:39;;;;;;;13.37;9.20;;;;;;;;;;6250322;22;20166;-77
2021/01/15 09:14:12;;;;;;;14.83;9.20;;;;;;;;;;6250114;22;20529;-78
2021/01/15 09:16:49;;;;;;;16.03;10.40;;;;;;;;;;6224909;22;20174;-78
2021/01/15 09:19:44;;;;;;;13.43;8.83;;;;;;;;;;6276915;22;20154;-78
2021/01/15 09:22:18;;;;;;;14.50;9.50;;;;;;;;;;6224648;22;20165;-78
2021/01/15 09:24:47;;;;;;;14.33;9.67;;;;;;;;;;6224944;22;20166;-78
2021/01/15 09:27:30;;;;;;;12.77;8.73;;;;;;;;;;6273860;22;20197;-78
2021/01/15 09:30:01;;;;;;;13.30;9.60;;;;;;;;;;6250646;22;20487;-78
2021/01/15 09:32:30;;;;;;;13.67;10.10;;;;;;;;;;6225010;22;20193;-81
2021/01/15 09:35:04;;;;;;;12.73;9.13;;;;;;;;;;6225444;22;20166;-78
2021/01/15 09:37:40;;;;;;;11.90;8.63;;;;;;;;;;6250356;22;20610;-78
2021/01/15 09:40:09;;;;;;;14.43;8.43;;;;;;;;;;6227017;22;20162;-79
2021/01/15 09:42:39;;;;;;;12.83;8.87;;;;;;;;;;6225170;22;20190;-78
2021/01/15 09:45:08;;;;;;;12.43;8.60;;;;;;;;;;6250149;22;20166;-78
2021/01/15 09:47:42;;;;;;;14.10;9.33;;;;;;;;;;6280453;22;20518;-79
2021/01/15 09:50:12;;;;;;;12.90;9.13;;;;;;;;;;6274307;22;20218;-79
2021/01/15 09:52:41;;;;;;;11.33;8.57;;;;;;;;;;6246527;22;20178;-79
2021/01/15 09:55:10;;;;;;;12.67;8.70;;;;;;;;;;6255507;22;20177;-78
2021/01/15 10:01:57;;;;;;;13.40;8.53;;;;;;;;;;6288059;22;20143;-79
2021/01/15 10:04:27;;;;;;;13.07;8.70;;;;;;;;;;6224637;22;20534;-79
2021/01/15 10:06:57;;;;;;;14.47;8.97;;;;;;;;;;6225931;22;20182;-79
2021/01/15 10:09:26;;;;;;;15.40;9.10;;;;;;;;;;6225709;22;20221;-79
2021/01/15 10:12:12;;;;;;;13.80;9.53;;;;;;;;;;6249686;22;20166;-79
2021/01/15 10:14:41;;;;;;;12.33;8.77;;;;;;;;;;6249428;22;20170;-79
2021/01/15 10:17:10;;;;;;;12.47;8.70;;;;;;;;;;6276536;22;20174;-79
2021/01/15 10:19:51;;;;;;;12.27;8.17;;;;;;;;;;6224215;22;20169;-79
2021/01/15 10:42:15;;;;;;;10.20;7.23;;;;;;;;;;6278474;22;20177;-79
2021/01/15 10:44:43;;;;;;;12.57;7.83;;;;;;;;;;6219799;23;20171;-78
2021/01/15 10:47:14;;;;;;;9.07;6.80;;;;;;;;;;6195492;23;20205;-78
2021/01/15 10:49:43;;;;;;;10.37;6.90;;;;;;;;;;6239806;23;20177;-78
2021/01/15 10:52:14;;;;;;;11.83;7.77;;;;;;;;;;6202935;23;20606;-78
2021/01/15 10:54:43;;;;;;;10.97;7.73;;;;;;;;;;6220350;23;20162;-78
2021/01/15 10:57:12;;;;;;;11.67;7.37;;;;;;;;;;6231846;23;20174;-79
2021/01/15 10:59:44;;;;;;;10.63;7.17;;;;;;;;;;6219956;23;20174;-79
2021/01/15 11:02:13;;;;;;;11.50;7.00;;;;;;;;;;6219638;23;20167;-78
2021/01/15 11:04:42;;;;;;;10.80;7.00;;;;;;;;;;6195871;23;20175;-78
2021/01/15 11:07:13;;;;;;;15.03;7.40;;;;;;;;;;6195273;23;20532;-80
2021/01/15 11:09:42;;;;;;;13.33;7.27;;;;;;;;;;6221080;23;20519;-81
2021/01/15 11:12:21;;;;;;;11.70;6.53;;;;;;;;;;6220940;23;20167;-80
2021/01/15 11:14:56;;;;;;;11.87;7.73;;;;;;;;;;6197030;23;20163;-80
2021/01/15 11:17:27;;;;;;;11.60;7.37;;;;;;;;;;6198409;23;20163;-81
2021/01/15 11:20:00;;;;;;;11.70;7.43;;;;;;;;;;6198988;23;20501;-80
2021/01/15 11:23:08;;;;;;;12.40;7.60;;;;;;;;;;6208571;22;20160;-81
2021/01/15 11:25:40;;;;;;;11.37;7.50;;;;;;;;;;6220359;23;20159;-82
2021/01/15 11:28:13;;;;;;;12.10;7.13;;;;;;;;;;6219849;23;20175;-80
2021/01/15 11:34:45;;;;;;;11.37;7.43;;;;;;;;;;6220298;23;20131;-80
2021/01/15 11:41:37;;;;;;;12.90;8.50;;;;;;;;;;6259194;23;20147;-80
2021/01/15 12:48:45;;;;;;;10.53;7.40;;;;;;;;;;6280397;22;20205;-79
2021/01/15 12:51:13;;;;;;;12.17;7.47;;;;;;;;;;6279438;22;20615;-79
2021/01/15 20:42:25;;;;;;;49.30;25.70;;;;;;;;;;6281916;22;20181;-80
2021/01/15 20:45:02;;;;;;;54.90;28.40;;;;;;;;;;6213433;23;20176;-80
2021/01/15 20:47:34;;;;;;;67.90;34.67;;;;;;;;;;6240724;23;20164;-80
2021/01/15 20:50:09;;;;;;;61.50;31.47;;;;;;;;;;6201567;23;20494;-81
2021/01/15 20:52:50;;;;;;;76.23;37.47;;;;;;;;;;6197888;23;20195;-80
2021/01/15 20:55:52;;;;;;;50.83;26.20;;;;;;;;;;6191414;23;20511;-80
2021/01/15 20:58:25;;;;;;;44.93;22.83;;;;;;;;;;6190851;23;20599;-80
2021/01/15 21:01:12;;;;;;;35.57;19.67;;;;;;;;;;6164609;23;20158;-80
2021/01/15 21:03:45;;;;;;;32.00;17.27;;;;;;;;;;6188814;23;20183;-80
2021/01/15 21:06:17;;;;;;;29.43;16.10;;;;;;;;;;6189119;23;20168;-80
2021/01/15 21:08:49;;;;;;;23.83;14.30;;;;;;;;;;6164460;23;20191;-80
2021/01/15 21:11:26;;;;;;;25.10;13.33;;;;;;;;;;6165195;23;20190;-80
2021/01/15 21:14:01;;;;;;;25.80;14.10;;;;;;;;;;6165145;23;20191;-80
2021/01/15 21:16:33;;;;;;;20.70;12.00;;;;;;;;;;6165400;23;20151;-80
2021/01/15 21:19:05;;;;;;;23.33;12.60;;;;;;;;;;6190885;23;20514;-79
2021/01/15 21:21:37;;;;;;;21.47;12.53;;;;;;;;;;6189792;23;20183;-80
2021/01/15 21:24:11;;;;;;;23.80;12.20;;;;;;;;;;6190443;23;20191;-80
2021/01/15 21:26:48;;;;;;;24.30;13.83;;;;;;;;;;6189149;23;20912;-80
2021/01/15 21:29:30;;;;;;;25.03;13.37;;;;;;;;;;6189528;23;20202;-80
2021/01/15 21:32:04;;;;;;;23.33;12.67;;;;;;;;;;6190888;23;20159;-80
2021/01/15 21:34:52;;;;;;;33.63;16.60;;;;;;;;;;6166404;23;20187;-80
2021/01/15 21:37:26;;;;;;;22.73;12.33;;;;;;;;;;6168217;23;20167;-80
2021/01/15 21:39:57;;;;;;;23.23;13.07;;;;;;;;;;6168260;23;20167;-80
